createdAt,value
2023-07-01T00:00:10.971Z,71.7
2023-07-01T00:00:27.171Z,71.65
2023-07-01T00:00:43.286Z,71.69
2023-07-01T00:00:59.444Z,71.49
2023-07-01T00:01:15.551Z,71.47
2023-07-01T00:01:31.722Z,71.76
2023-07-01T00:01:47.913Z,71.79
2023-07-01T00:02:04.198Z,71.51
2023-07-01T00:02:20.262Z,71.51
2023-07-01T00:02:36.295Z,71.38
2023-07-01T00:02:52.485Z,71.29
2023-07-01T00:03:08.658Z,71.3
2023-07-01T00:03:24.750Z,71.19
2023-07-01T00:03:40.925Z,71.26
2023-07-01T00:03:57.066Z,71.24
2023-07-01T00:04:13.323Z,71.1
2023-07-01T00:04:29.709Z,71.21
2023-07-01T00:04:45.546Z,71.19
2023-07-01T00:05:01.699Z,71.23
2023-07-01T00:05:17.877Z,71.35
2023-07-01T00:05:33.895Z,71.43
2023-07-01T00:05:50.029Z,71.26
2023-07-01T00:06:06.218Z,71.12
2023-07-01T00:06:22.342Z,71.18
2023-07-01T00:06:38.469Z,71.25
2023-07-01T00:06:54.631Z,71.22
2023-07-01T00:07:10.791Z,71.24
2023-07-01T00:07:26.919Z,71.33
2023-07-01T00:07:43.060Z,71.41
2023-07-01T00:07:59.198Z,71.32
2023-07-01T00:08:15.349Z,71.27
2023-07-01T00:08:31.528Z,71.31
2023-07-01T00:08:47.643Z,71.41
2023-07-01T00:09:03.799Z,71.51
2023-07-01T00:09:19.938Z,71.37
2023-07-01T00:09:36.129Z,71.15
2023-07-01T00:09:52.248Z,71.08
2023-07-01T00:10:08.390Z,71.06
2023-07-01T00:10:24.522Z,70.99
2023-07-01T00:10:40.656Z,70.94
2023-07-01T00:10:56.798Z,70.88
2023-07-01T00:11:12.971Z,70.89
2023-07-01T00:11:29.114Z,70.64
2023-07-01T00:11:45.227Z,70.65
2023-07-01T00:12:01.486Z,70.69
2023-07-01T00:12:17.561Z,70.78
2023-07-01T00:12:33.682Z,70.73
2023-07-01T00:12:49.806Z,70.69
2023-07-01T00:13:05.972Z,70.76
2023-07-01T00:13:22.124Z,70.8
2023-07-01T00:13:38.246Z,70.84
2023-07-01T00:13:54.391Z,70.87
2023-07-01T00:14:10.575Z,70.71
2023-07-01T00:14:26.699Z,70.73
2023-07-01T00:14:42.849Z,70.67
2023-07-01T00:14:59.003Z,70.66
2023-07-01T00:15:15.126Z,70.72
2023-07-01T00:15:31.267Z,70.65
2023-07-01T00:15:47.423Z,70.59
2023-07-01T00:16:03.563Z,70.61
2023-07-01T00:16:19.821Z,70.66
2023-07-01T00:16:35.995Z,70.53
2023-07-01T00:16:52.007Z,70.35
2023-07-01T00:17:08.166Z,70.36
2023-07-01T00:17:24.368Z,70.42
2023-07-01T00:17:40.469Z,70.54
2023-07-01T00:17:56.645Z,70.79
2023-07-01T00:18:12.758Z,70.9
2023-07-01T00:18:28.893Z,70.68
2023-07-01T00:18:45.019Z,70.57
2023-07-01T00:19:01.214Z,70.52
2023-07-01T00:19:17.317Z,70.61
2023-07-01T00:19:33.489Z,70.79
2023-07-01T00:19:49.636Z,70.94
2023-07-01T00:20:05.808Z,70.91
2023-07-01T00:20:21.902Z,70.84
2023-07-01T00:20:38.062Z,70.68
2023-07-01T00:20:54.214Z,70.64
2023-07-01T00:21:10.358Z,70.7
2023-07-01T00:21:26.462Z,70.65
2023-07-01T00:21:42.631Z,70.5
2023-07-01T00:21:58.766Z,70.45
2023-07-01T00:22:14.918Z,70.48
2023-07-01T00:22:31.062Z,70.47
2023-07-01T00:22:47.195Z,70.55
2023-07-01T00:23:03.372Z,70.41
2023-07-01T00:23:19.507Z,70.41
2023-07-01T00:23:35.726Z,70.5
2023-07-01T00:23:51.804Z,70.41
2023-07-01T00:24:07.954Z,70.23
2023-07-01T00:24:24.128Z,70.09
2023-07-01T00:24:40.230Z,70.04
2023-07-01T00:24:56.380Z,70.34
2023-07-01T00:25:12.511Z,70.67
2023-07-01T00:25:28.687Z,70.71
2023-07-01T00:25:44.800Z,70.5
2023-07-01T00:26:00.966Z,70.41
2023-07-01T00:26:17.098Z,70.37
2023-07-01T00:26:33.238Z,70.38
2023-07-01T00:26:49.384Z,70.37
2023-07-01T00:27:05.644Z,70.53
2023-07-01T00:27:21.683Z,70.68
2023-07-01T00:27:37.871Z,70.67
2023-07-01T00:27:53.975Z,70.79
2023-07-01T00:28:10.134Z,70.81
2023-07-01T00:28:26.267Z,70.83
2023-07-01T00:28:42.416Z,70.79
2023-07-01T00:28:58.573Z,70.83
2023-07-01T00:29:14.700Z,70.92
2023-07-01T00:29:30.842Z,71
2023-07-01T00:29:47.012Z,71.03
2023-07-01T00:30:03.201Z,71.16
2023-07-01T00:30:19.302Z,71.17
2023-07-01T00:30:35.476Z,71.23
2023-07-01T00:30:51.638Z,71.3
2023-07-01T00:31:07.785Z,71.38
2023-07-01T00:31:23.917Z,71.65
2023-07-01T00:31:40.150Z,71.7
2023-07-01T00:31:56.163Z,71.71
2023-07-01T00:32:12.443Z,71.7
2023-07-01T00:32:28.509Z,71.75
2023-07-01T00:32:44.702Z,71.8
2023-07-01T00:33:00.735Z,71.78
2023-07-01T00:33:17.006Z,71.64
2023-07-01T00:33:33.019Z,71.52
2023-07-01T00:33:49.167Z,71.61
2023-07-01T00:34:05.334Z,71.6
2023-07-01T00:34:21.473Z,71.52
2023-07-01T00:34:37.611Z,71.55
2023-07-01T00:34:53.772Z,71.52
2023-07-01T00:35:09.912Z,71.57
2023-07-01T00:35:26.130Z,71.53
2023-07-01T00:35:42.204Z,71.58
2023-07-01T00:35:58.356Z,71.69
2023-07-01T00:36:14.487Z,71.81
2023-07-01T00:36:30.653Z,71.76
2023-07-01T00:36:46.776Z,71.68
2023-07-01T00:37:02.925Z,71.57
2023-07-01T00:37:19.127Z,71.53
2023-07-01T00:37:35.208Z,71.58
2023-07-01T00:37:51.358Z,71.36
2023-07-01T00:38:07.606Z,71.37
2023-07-01T00:38:23.625Z,71.5
2023-07-01T00:38:39.855Z,71.55
2023-07-01T00:38:55.962Z,71.65
2023-07-01T00:39:12.111Z,71.65
2023-07-01T00:39:28.268Z,71.67
2023-07-01T00:39:44.377Z,71.69
2023-07-01T00:40:00.514Z,71.76
2023-07-01T00:40:16.652Z,71.55
2023-07-01T00:40:32.931Z,71.62
2023-07-01T00:40:49.299Z,71.52
2023-07-01T00:41:05.188Z,71.31
2023-07-01T00:41:21.245Z,71.21
2023-07-01T00:41:37.397Z,71.11
2023-07-01T00:41:53.546Z,70.99
2023-07-01T00:42:20.986Z,70.96
2023-07-01T00:42:37.174Z,70.91
2023-07-01T00:42:53.253Z,70.84
2023-07-01T00:43:09.412Z,70.96
2023-07-01T00:43:25.541Z,70.98
2023-07-01T00:43:41.719Z,70.98
2023-07-01T00:43:57.843Z,70.78
2023-07-01T00:44:14.016Z,70.65
2023-07-01T00:44:30.151Z,70.69
2023-07-01T00:44:46.288Z,70.77
2023-07-01T00:45:02.404Z,70.85
2023-07-01T00:45:18.560Z,70.83
2023-07-01T00:45:34.734Z,70.78
2023-07-01T00:45:50.964Z,70.85
2023-07-01T00:46:07.005Z,70.87
2023-07-01T00:46:23.273Z,70.94
2023-07-01T00:46:39.364Z,70.97
2023-07-01T00:46:55.442Z,70.98
2023-07-01T00:47:11.640Z,70.97
2023-07-01T00:47:27.758Z,70.94
2023-07-01T00:47:43.913Z,70.82
2023-07-01T00:48:00.058Z,70.67
2023-07-01T00:48:16.153Z,70.55
2023-07-01T00:48:32.331Z,70.52
2023-07-01T00:48:48.461Z,70.51
2023-07-01T00:49:04.645Z,70.5
2023-07-01T00:49:20.748Z,70.48
2023-07-01T00:49:36.900Z,70.5
2023-07-01T00:49:53.042Z,70.46
2023-07-01T00:50:09.191Z,70.34
2023-07-01T00:50:25.408Z,70.35
2023-07-01T00:50:41.533Z,70.44
2023-07-01T00:50:57.723Z,70.75
2023-07-01T00:51:13.823Z,70.61
2023-07-01T00:51:29.905Z,70.42
2023-07-01T00:51:46.067Z,70.55
2023-07-01T00:52:02.229Z,70.67
2023-07-01T00:52:18.380Z,70.61
2023-07-01T00:52:34.524Z,70.93
2023-07-01T00:52:50.657Z,71.03
2023-07-01T00:53:06.806Z,70.92
2023-07-01T00:53:22.987Z,70.66
2023-07-01T00:53:39.127Z,70.68
2023-07-01T00:53:55.218Z,71.03
2023-07-01T00:54:11.362Z,70.9
2023-07-01T00:54:27.562Z,70.81
2023-07-01T00:54:43.681Z,70.74
2023-07-01T00:54:59.793Z,70.75
2023-07-01T00:55:15.953Z,70.76
2023-07-01T00:55:32.107Z,70.94
2023-07-01T00:55:48.244Z,70.99
2023-07-01T00:56:04.409Z,70.96
2023-07-01T00:56:20.525Z,71.12
2023-07-01T00:56:36.801Z,71.33
2023-07-01T00:56:52.826Z,71.33
2023-07-01T00:57:08.982Z,71.22
2023-07-01T00:57:25.105Z,71.06
2023-07-01T00:57:41.262Z,70.92
2023-07-01T00:57:57.444Z,70.84
2023-07-01T00:58:13.537Z,70.73
2023-07-01T00:58:29.700Z,70.71
2023-07-01T00:58:45.892Z,70.79
2023-07-01T00:59:01.974Z,70.82
2023-07-01T00:59:18.158Z,70.85
2023-07-01T00:59:34.279Z,70.89
2023-07-01T00:59:50.429Z,70.9
2023-07-01T01:00:06.576Z,70.76
2023-07-01T01:00:23.463Z,70.74
2023-07-01T01:00:38.903Z,70.61
2023-07-01T01:00:55.021Z,70.56
2023-07-01T01:01:11.231Z,70.67
2023-07-01T01:01:27.366Z,70.77
2023-07-01T01:01:59.587Z,70.56
2023-07-01T01:02:15.841Z,70.51
2023-07-01T01:02:31.995Z,70.57
2023-07-01T01:02:48.092Z,70.67
2023-07-01T01:03:04.304Z,70.78
2023-07-01T01:03:20.416Z,70.81
2023-07-01T01:03:36.659Z,70.78
2023-07-01T01:03:52.698Z,70.69
2023-07-01T01:04:08.804Z,70.55
2023-07-01T01:04:24.981Z,70.41
2023-07-01T01:04:41.112Z,70.35
2023-07-01T01:04:57.194Z,70.44
2023-07-01T01:05:13.331Z,70.5
2023-07-01T01:05:29.470Z,70.74
2023-07-01T01:05:45.637Z,70.73
2023-07-01T01:06:01.813Z,70.82
2023-07-01T01:06:17.945Z,70.9
2023-07-01T01:06:34.059Z,70.91
2023-07-01T01:06:50.265Z,71.03
2023-07-01T01:07:06.371Z,71.06
2023-07-01T01:07:22.584Z,71.08
2023-07-01T01:07:38.775Z,71.18
2023-07-01T01:07:54.803Z,71.1
2023-07-01T01:08:10.966Z,71.07
2023-07-01T01:08:27.140Z,70.85
2023-07-01T01:08:43.253Z,70.86
2023-07-01T01:08:59.378Z,70.89
2023-07-01T01:09:15.521Z,70.85
2023-07-01T01:09:31.659Z,70.75
2023-07-01T01:09:47.797Z,70.75
2023-07-01T01:10:04.007Z,70.88
2023-07-01T01:10:20.091Z,71.01
2023-07-01T01:10:36.273Z,70.9
2023-07-01T01:10:52.436Z,70.92
2023-07-01T01:11:08.535Z,70.82
2023-07-01T01:11:24.695Z,70.82
2023-07-01T01:11:40.838Z,70.83
2023-07-01T01:11:57.009Z,70.87
2023-07-01T01:12:13.175Z,70.72
2023-07-01T01:12:29.310Z,70.7
2023-07-01T01:12:45.407Z,70.81
2023-07-01T01:13:01.559Z,70.83
2023-07-01T01:13:17.708Z,70.73
2023-07-01T01:13:33.855Z,70.6
2023-07-01T01:13:49.996Z,70.6
2023-07-01T01:14:06.208Z,70.62
2023-07-01T01:14:22.284Z,70.69
2023-07-01T01:14:38.427Z,70.62
2023-07-01T01:14:54.623Z,70.59
2023-07-01T01:15:10.729Z,70.59
2023-07-01T01:15:26.898Z,70.65
2023-07-01T01:15:43.031Z,70.75
2023-07-01T01:15:59.191Z,70.74
2023-07-01T01:16:15.519Z,70.7
2023-07-01T01:16:31.562Z,70.77
2023-07-01T01:16:47.608Z,70.73
2023-07-01T01:17:03.788Z,70.66
2023-07-01T01:17:19.969Z,70.56
2023-07-01T01:17:52.189Z,70.37
2023-07-01T01:18:08.354Z,70.7
2023-07-01T01:18:24.461Z,70.51
2023-07-01T01:18:40.630Z,70.47
2023-07-01T01:18:56.769Z,70.45
2023-07-01T01:19:12.906Z,70.5
2023-07-01T01:19:29.077Z,70.59
2023-07-01T01:19:45.193Z,70.64
2023-07-01T01:20:01.385Z,70.4
2023-07-01T01:20:17.734Z,70.43
2023-07-01T01:20:33.666Z,70.46
2023-07-01T01:20:49.827Z,70.49
2023-07-01T01:21:05.953Z,70.72
2023-07-01T01:21:22.065Z,70.74
2023-07-01T01:21:38.272Z,70.77
2023-07-01T01:21:54.384Z,70.7
2023-07-01T01:22:10.518Z,70.62
2023-07-01T01:22:26.648Z,70.67
2023-07-01T01:22:47.020Z,70.61
2023-07-01T01:22:58.938Z,70.6
2023-07-01T01:23:15.098Z,70.55
2023-07-01T01:23:31.286Z,70.47
2023-07-01T01:23:47.394Z,70.4
2023-07-01T01:24:03.530Z,70.37
2023-07-01T01:24:19.663Z,70.39
2023-07-01T01:24:35.814Z,70.26
2023-07-01T01:24:51.958Z,70.16
2023-07-01T01:25:08.144Z,70.2
2023-07-01T01:25:24.270Z,70.31
2023-07-01T01:25:40.405Z,70.37
2023-07-01T01:25:56.542Z,70.49
2023-07-01T01:26:12.691Z,70.54
2023-07-01T01:26:28.835Z,70.55
2023-07-01T01:26:44.988Z,70.49
2023-07-01T01:27:01.162Z,70.51
2023-07-01T01:27:17.263Z,70.63
2023-07-01T01:27:33.410Z,70.56
2023-07-01T01:27:49.563Z,70.42
2023-07-01T01:28:05.729Z,70.4
2023-07-01T01:28:21.859Z,70.33
2023-07-01T01:28:38.025Z,70.29
2023-07-01T01:28:54.146Z,70.26
2023-07-01T01:29:10.281Z,70.27
2023-07-01T01:29:26.472Z,70.26
2023-07-01T01:29:42.586Z,70.26
2023-07-01T01:29:58.759Z,70.26
2023-07-01T01:30:14.881Z,70.26
2023-07-01T01:30:31.004Z,69.99
2023-07-01T01:30:47.411Z,69.93
2023-07-01T01:31:03.350Z,70.39
2023-07-01T01:31:19.510Z,70.4
2023-07-01T01:31:35.662Z,70.52
2023-07-01T01:31:51.752Z,70.44
2023-07-01T01:32:07.884Z,70.38
2023-07-01T01:32:24.288Z,70.39
2023-07-01T01:32:40.248Z,70.48
2023-07-01T01:32:56.369Z,70.41
2023-07-01T01:33:12.476Z,70.28
2023-07-01T01:33:28.644Z,70.29
2023-07-01T01:33:44.820Z,70.29
2023-07-01T01:34:00.920Z,70.41
2023-07-01T01:34:17.045Z,70.29
2023-07-01T01:34:33.195Z,70.1
2023-07-01T01:34:49.352Z,70.03
2023-07-01T01:35:05.492Z,70.13
2023-07-01T01:35:21.675Z,70.21
2023-07-01T01:35:37.829Z,70.24
2023-07-01T01:35:53.937Z,70.26
2023-07-01T01:36:21.389Z,70.35
2023-07-01T01:36:37.511Z,70.49
2023-07-01T01:36:53.659Z,70.52
2023-07-01T01:37:09.841Z,70.56
2023-07-01T01:37:25.960Z,70.54
2023-07-01T01:37:42.100Z,70.46
2023-07-01T01:37:58.273Z,70.51
2023-07-01T01:38:14.414Z,70.56
2023-07-01T01:38:30.527Z,70.62
2023-07-01T01:38:46.690Z,70.68
2023-07-01T01:39:02.857Z,70.71
2023-07-01T01:39:18.951Z,70.75
2023-07-01T01:39:35.105Z,70.73
2023-07-01T01:39:51.301Z,70.91
2023-07-01T01:40:07.394Z,70.89
2023-07-01T01:40:23.567Z,70.89
2023-07-01T01:40:39.702Z,70.81
2023-07-01T01:40:55.834Z,70.73
2023-07-01T01:41:11.980Z,70.74
2023-07-01T01:41:28.124Z,70.79
2023-07-01T01:41:44.278Z,70.93
2023-07-01T01:42:00.471Z,70.96
2023-07-01T01:42:16.577Z,70.84
2023-07-01T01:42:32.708Z,70.76
2023-07-01T01:42:48.895Z,70.77
2023-07-01T01:43:05.038Z,70.78
2023-07-01T01:43:21.143Z,70.77
2023-07-01T01:43:37.292Z,70.78
2023-07-01T01:43:53.484Z,70.83
2023-07-01T01:44:09.634Z,70.88
2023-07-01T01:44:25.724Z,70.83
2023-07-01T01:44:41.925Z,70.78
2023-07-01T01:44:58.052Z,70.73
2023-07-01T01:45:14.204Z,70.8
2023-07-01T01:45:30.315Z,70.82
2023-07-01T01:45:46.479Z,70.83
2023-07-01T01:46:02.630Z,70.78
2023-07-01T01:46:18.848Z,70.79
2023-07-01T01:46:34.941Z,70.75
2023-07-01T01:46:51.126Z,70.78
2023-07-01T01:47:07.348Z,70.81
2023-07-01T01:47:23.379Z,70.78
2023-07-01T01:47:39.504Z,70.68
2023-07-01T01:47:55.661Z,70.7
2023-07-01T01:48:11.859Z,70.76
2023-07-01T01:48:27.906Z,70.76
2023-07-01T01:48:44.070Z,70.69
2023-07-01T01:49:00.202Z,70.72
2023-07-01T01:49:16.356Z,70.77
2023-07-01T01:49:32.610Z,70.75
2023-07-01T01:49:48.647Z,70.7
2023-07-01T01:50:04.891Z,70.7
2023-07-01T01:50:20.934Z,70.67
2023-07-01T01:50:37.108Z,70.7
2023-07-01T01:50:53.257Z,70.67
2023-07-01T01:51:09.453Z,70.71
2023-07-01T01:51:25.514Z,70.91
2023-07-01T01:51:41.684Z,71.04
2023-07-01T01:51:57.805Z,70.99
2023-07-01T01:52:14.025Z,70.92
2023-07-01T01:52:30.109Z,70.91
2023-07-01T01:52:46.258Z,70.82
2023-07-01T01:53:02.392Z,70.72
2023-07-01T01:53:18.527Z,70.65
2023-07-01T01:53:34.688Z,70.51
2023-07-01T01:53:50.868Z,70.37
2023-07-01T01:54:07.167Z,70.2
2023-07-01T01:54:23.121Z,70.31
2023-07-01T01:54:39.258Z,70.37
2023-07-01T01:54:55.396Z,70.49
2023-07-01T01:55:11.588Z,70.6
2023-07-01T01:55:27.742Z,70.69
2023-07-01T01:55:43.888Z,70.68
2023-07-01T01:56:00.022Z,70.6
2023-07-01T01:56:16.130Z,70.56
2023-07-01T01:56:32.274Z,70.48
2023-07-01T01:56:48.414Z,70.45
2023-07-01T01:57:04.582Z,70.48
2023-07-01T01:57:20.718Z,70.59
2023-07-01T01:57:36.896Z,70.75
2023-07-01T01:57:53.008Z,70.77
2023-07-01T01:58:09.181Z,70.75
2023-07-01T01:58:25.300Z,70.6
2023-07-01T01:58:41.440Z,70.48
2023-07-01T01:58:57.644Z,70.64
2023-07-01T01:59:13.752Z,70.59
2023-07-01T01:59:29.883Z,70.54
2023-07-01T01:59:46.051Z,70.55
2023-07-01T02:00:02.188Z,70.64
2023-07-01T02:00:18.312Z,70.67
2023-07-01T02:00:34.481Z,70.56
2023-07-01T02:00:50.763Z,70.36
2023-07-01T02:01:06.813Z,70.19
2023-07-01T02:01:22.944Z,70.12
2023-07-01T02:01:39.084Z,69.83
2023-07-01T02:01:55.228Z,69.91
2023-07-01T02:02:11.407Z,70.26
2023-07-01T02:02:27.527Z,70.11
2023-07-01T02:02:43.722Z,70.25
2023-07-01T02:02:59.905Z,70.16
2023-07-01T02:03:16.147Z,70.13
2023-07-01T02:03:32.195Z,70.19
2023-07-01T02:03:48.457Z,70.26
2023-07-01T02:04:04.651Z,70.33
2023-07-01T02:04:20.673Z,70.43
2023-07-01T02:04:36.862Z,70.41
2023-07-01T02:04:52.979Z,70.4
2023-07-01T02:05:09.067Z,70.44
2023-07-01T02:05:25.208Z,70.44
2023-07-01T02:05:41.296Z,70.51
2023-07-01T02:05:57.376Z,70.6
2023-07-01T02:06:13.521Z,70.51
2023-07-01T02:06:29.658Z,70.19
2023-07-01T02:06:45.845Z,70.22
2023-07-01T02:07:01.997Z,70.25
2023-07-01T02:07:18.123Z,70.28
2023-07-01T02:07:34.262Z,70.24
2023-07-01T02:07:50.441Z,70.34
2023-07-01T02:08:06.676Z,70.36
2023-07-01T02:08:22.689Z,70.35
2023-07-01T02:08:38.837Z,70.33
2023-07-01T02:08:54.988Z,70.4
2023-07-01T02:09:11.177Z,70.43
2023-07-01T02:09:27.298Z,70.34
2023-07-01T02:09:43.438Z,70.25
2023-07-01T02:09:59.544Z,70.22
2023-07-01T02:10:15.738Z,70.27
2023-07-01T02:10:31.884Z,70.29
2023-07-01T02:10:48.412Z,70.36
2023-07-01T02:11:04.178Z,70.37
2023-07-01T02:11:20.369Z,70.43
2023-07-01T02:11:36.438Z,70.48
2023-07-01T02:11:52.590Z,70.49
2023-07-01T02:12:08.736Z,70.41
2023-07-01T02:12:24.864Z,70.4
2023-07-01T02:12:41.018Z,70.41
2023-07-01T02:12:57.154Z,70.49
2023-07-01T02:13:13.329Z,70.54
2023-07-01T02:13:29.453Z,70.6
2023-07-01T02:13:45.650Z,70.74
2023-07-01T02:14:01.783Z,70.59
2023-07-01T02:14:17.964Z,70.48
2023-07-01T02:14:34.031Z,70.49
2023-07-01T02:14:50.223Z,70.48
2023-07-01T02:15:06.324Z,70.49
2023-07-01T02:15:22.509Z,70.52
2023-07-01T02:15:38.631Z,70.62
2023-07-01T02:15:54.859Z,70.73
2023-07-01T02:16:10.975Z,70.89
2023-07-01T02:16:27.086Z,70.62
2023-07-01T02:16:43.264Z,70.44
2023-07-01T02:16:59.450Z,70.24
2023-07-01T02:17:15.486Z,70.27
2023-07-01T02:17:31.669Z,70.34
2023-07-01T02:17:47.842Z,70.39
2023-07-01T02:18:04.034Z,70.45
2023-07-01T02:18:20.105Z,70.45
2023-07-01T02:18:36.222Z,70.5
2023-07-01T02:18:52.348Z,70.6
2023-07-01T02:19:08.507Z,70.5
2023-07-01T02:19:24.675Z,70.19
2023-07-01T02:19:40.787Z,70.21
2023-07-01T02:19:56.947Z,70.26
2023-07-01T02:20:13.091Z,70.11
2023-07-01T02:20:29.232Z,70.03
2023-07-01T02:20:45.687Z,69.98
2023-07-01T02:21:01.522Z,69.97
2023-07-01T02:21:17.667Z,70.12
2023-07-01T02:21:33.834Z,70.22
2023-07-01T02:21:50.073Z,70.29
2023-07-01T02:22:06.149Z,70.3
2023-07-01T02:22:22.268Z,70.11
2023-07-01T02:22:38.442Z,70.01
2023-07-01T02:22:54.573Z,69.97
2023-07-01T02:23:10.696Z,70.06
2023-07-01T02:23:26.826Z,70.12
2023-07-01T02:23:43.018Z,70.18
2023-07-01T02:23:59.125Z,70.22
2023-07-01T02:24:15.296Z,70.33
2023-07-01T02:24:31.426Z,70.39
2023-07-01T02:24:47.596Z,70.35
2023-07-01T02:25:03.718Z,70.22
2023-07-01T02:25:19.850Z,70.26
2023-07-01T02:25:36.006Z,70.36
2023-07-01T02:25:52.151Z,70.6
2023-07-01T02:26:08.313Z,70.56
2023-07-01T02:26:24.476Z,70.56
2023-07-01T02:26:40.577Z,70.52
2023-07-01T02:26:56.749Z,70.56
2023-07-01T02:27:12.888Z,70.59
2023-07-01T02:27:29.012Z,70.6
2023-07-01T02:27:45.177Z,70.63
2023-07-01T02:28:01.310Z,70.7
2023-07-01T02:28:17.504Z,70.83
2023-07-01T02:28:33.612Z,70.85
2023-07-01T02:28:49.740Z,70.94
2023-07-01T02:29:05.929Z,70.98
2023-07-01T02:29:22.059Z,71.03
2023-07-01T02:29:38.215Z,71.08
2023-07-01T02:29:54.338Z,71.29
2023-07-01T02:30:21.767Z,71.35
2023-07-01T02:30:37.948Z,71.28
2023-07-01T02:30:54.097Z,71.14
2023-07-01T02:31:10.275Z,71.15
2023-07-01T02:31:42.486Z,71.58
2023-07-01T02:31:58.643Z,71.67
2023-07-01T02:32:14.782Z,71.63
2023-07-01T02:32:31.024Z,71.4
2023-07-01T02:32:47.213Z,71.24
2023-07-01T02:33:03.241Z,71.17
2023-07-01T02:33:19.369Z,71.12
2023-07-01T02:33:35.548Z,71.27
2023-07-01T02:33:51.645Z,71.37
2023-07-01T02:34:07.810Z,71.35
2023-07-01T02:34:23.969Z,71.25
2023-07-01T02:34:40.121Z,71.15
2023-07-01T02:34:56.283Z,71.4
2023-07-01T02:35:12.373Z,71.57
2023-07-01T02:35:28.540Z,71.69
2023-07-01T02:35:44.677Z,71.73
2023-07-01T02:36:00.849Z,71.62
2023-07-01T02:36:16.970Z,71.24
2023-07-01T02:36:33.129Z,70.86
2023-07-01T02:36:49.252Z,70.8
2023-07-01T02:37:05.508Z,70.91
2023-07-01T02:37:21.574Z,70.95
2023-07-01T02:37:37.805Z,71.11
2023-07-01T02:37:53.861Z,71.19
2023-07-01T02:38:09.984Z,71.05
2023-07-01T02:38:26.137Z,70.94
2023-07-01T02:38:42.267Z,70.8
2023-07-01T02:38:58.429Z,70.8
2023-07-01T02:39:14.599Z,70.79
2023-07-01T02:39:30.781Z,70.9
2023-07-01T02:39:46.871Z,71.02
2023-07-01T02:40:03.013Z,71.03
2023-07-01T02:40:19.172Z,70.98
2023-07-01T02:40:35.292Z,70.94
2023-07-01T02:40:51.437Z,70.8
2023-07-01T02:41:07.576Z,70.78
2023-07-01T02:41:23.739Z,70.91
2023-07-01T02:41:39.892Z,71
2023-07-01T02:41:56.026Z,71
2023-07-01T02:42:12.155Z,71.07
2023-07-01T02:42:28.308Z,71.12
2023-07-01T02:42:44.465Z,71.14
2023-07-01T02:43:00.632Z,71.18
2023-07-01T02:43:16.770Z,71.31
2023-07-01T02:43:32.885Z,71.42
2023-07-01T02:43:49.069Z,71.38
2023-07-01T02:44:05.195Z,71.25
2023-07-01T02:44:21.350Z,71.3
2023-07-01T02:44:37.489Z,71.6
2023-07-01T02:44:53.615Z,71.59
2023-07-01T02:45:09.776Z,71.48
2023-07-01T02:45:25.942Z,71.49
2023-07-01T02:45:42.066Z,71.59
2023-07-01T02:45:58.238Z,71.73
2023-07-01T02:46:14.428Z,71.63
2023-07-01T02:46:30.510Z,71.48
2023-07-01T02:46:46.733Z,71.42
2023-07-01T02:47:02.775Z,71.46
2023-07-01T02:47:18.930Z,71.65
2023-07-01T02:47:35.176Z,71.91
2023-07-01T02:47:51.229Z,71.99
2023-07-01T02:48:07.388Z,71.96
2023-07-01T02:48:23.524Z,72.07
2023-07-01T02:48:39.695Z,72.09
2023-07-01T02:48:55.843Z,72.18
2023-07-01T02:49:11.950Z,72.25
2023-07-01T02:49:28.097Z,72.22
2023-07-01T02:49:44.756Z,71.99
2023-07-01T02:50:00.387Z,71.87
2023-07-01T02:50:16.584Z,71.72
2023-07-01T02:50:32.700Z,71.65
2023-07-01T02:50:49.258Z,71.5
2023-07-01T02:51:04.994Z,71.42
2023-07-01T02:51:21.119Z,71.44
2023-07-01T02:51:37.293Z,71.46
2023-07-01T02:51:53.399Z,71.49
2023-07-01T02:52:09.561Z,71.57
2023-07-01T02:52:25.680Z,71.71
2023-07-01T02:52:41.868Z,71.73
2023-07-01T02:52:57.983Z,71.81
2023-07-01T02:53:14.205Z,71.93
2023-07-01T02:53:30.280Z,72.12
2023-07-01T02:53:46.435Z,72.1
2023-07-01T02:54:02.580Z,72.1
2023-07-01T02:54:18.730Z,72.08
2023-07-01T02:54:34.910Z,72.11
2023-07-01T02:54:51.013Z,71.98
2023-07-01T02:55:07.269Z,71.85
2023-07-01T02:55:23.359Z,71.83
2023-07-01T02:55:39.458Z,71.92
2023-07-01T02:55:55.614Z,71.89
2023-07-01T02:56:11.749Z,71.83
2023-07-01T02:56:27.875Z,71.89
2023-07-01T02:56:44.056Z,71.92
2023-07-01T02:57:00.188Z,71.85
2023-07-01T02:57:16.307Z,71.81
2023-07-01T02:57:32.465Z,71.81
2023-07-01T02:57:48.610Z,71.82
2023-07-01T02:58:04.796Z,71.86
2023-07-01T02:58:20.941Z,71.71
2023-07-01T02:58:37.050Z,71.68
2023-07-01T02:58:53.195Z,71.89
2023-07-01T02:59:09.320Z,71.93
2023-07-01T02:59:25.478Z,71.92
2023-07-01T02:59:41.639Z,72
2023-07-01T02:59:57.817Z,71.93
2023-07-01T03:00:13.965Z,71.95
2023-07-01T03:00:30.115Z,72
2023-07-01T03:00:46.576Z,71.96
2023-07-01T03:01:02.349Z,72.01
2023-07-01T03:01:18.555Z,72.05
2023-07-01T03:01:34.672Z,72.16
2023-07-01T03:01:50.856Z,72.23
2023-07-01T03:02:07.026Z,72.29
2023-07-01T03:02:23.125Z,72.33
2023-07-01T03:02:39.340Z,72.35
2023-07-01T03:02:55.480Z,72.3
2023-07-01T03:03:11.567Z,72.18
2023-07-01T03:03:27.905Z,72.09
2023-07-01T03:03:43.877Z,72.07
2023-07-01T03:04:05.726Z,72
2023-07-01T03:04:32.316Z,71.88
2023-07-01T03:04:48.420Z,71.91
2023-07-01T03:05:04.556Z,72
2023-07-01T03:05:20.680Z,72.06
2023-07-01T03:05:36.844Z,72.08
2023-07-01T03:05:52.965Z,72.09
2023-07-01T03:06:09.149Z,72.1
2023-07-01T03:06:25.349Z,72.08
2023-07-01T03:06:41.403Z,72.03
2023-07-01T03:06:57.586Z,72.07
2023-07-01T03:07:13.694Z,72.05
2023-07-01T03:07:29.881Z,72
2023-07-01T03:07:45.983Z,71.95
2023-07-01T03:08:02.136Z,71.86
2023-07-01T03:08:18.319Z,71.87
2023-07-01T03:08:34.436Z,71.95
2023-07-01T03:08:50.580Z,71.79
2023-07-01T03:09:06.761Z,71.92
2023-07-01T03:09:22.887Z,72.09
2023-07-01T03:09:39.075Z,72.1
2023-07-01T03:09:55.155Z,72.23
2023-07-01T03:10:11.319Z,72.22
2023-07-01T03:10:27.466Z,72.29
2023-07-01T03:10:43.641Z,72.36
2023-07-01T03:10:59.750Z,72.27
2023-07-01T03:11:15.898Z,72.27
2023-07-01T03:11:32.056Z,72.31
2023-07-01T03:11:48.179Z,72.37
2023-07-01T03:12:04.372Z,72.33
2023-07-01T03:12:20.475Z,72.13
2023-07-01T03:12:36.638Z,72.01
2023-07-01T03:12:52.754Z,72.05
2023-07-01T03:13:08.927Z,72.04
2023-07-01T03:13:25.045Z,72.07
2023-07-01T03:13:41.205Z,72.09
2023-07-01T03:13:57.348Z,71.99
2023-07-01T03:14:13.518Z,71.95
2023-07-01T03:14:29.759Z,72.02
2023-07-01T03:14:45.782Z,72.06
2023-07-01T03:15:01.979Z,72.2
2023-07-01T03:15:18.063Z,72.17
2023-07-01T03:15:34.204Z,72.16
2023-07-01T03:15:50.429Z,72.17
2023-07-01T03:16:06.621Z,72.21
2023-07-01T03:16:22.719Z,72.21
2023-07-01T03:16:38.932Z,72.25
2023-07-01T03:16:55.011Z,72.33
2023-07-01T03:17:11.171Z,72.22
2023-07-01T03:17:27.303Z,72.09
2023-07-01T03:17:43.390Z,72.08
2023-07-01T03:17:59.601Z,72.06
2023-07-01T03:18:15.704Z,72.09
2023-07-01T03:18:31.808Z,72.2
2023-07-01T03:18:47.968Z,72.26
2023-07-01T03:19:04.125Z,72.33
2023-07-01T03:19:20.286Z,72.56
2023-07-01T03:19:36.393Z,72.68
2023-07-01T03:19:52.573Z,72.49
2023-07-01T03:20:08.710Z,72.4
2023-07-01T03:20:24.892Z,72.41
2023-07-01T03:20:41.020Z,72.35
2023-07-01T03:20:57.163Z,72.35
2023-07-01T03:21:13.266Z,72.63
2023-07-01T03:21:29.404Z,72.59
2023-07-01T03:21:45.557Z,72.64
2023-07-01T03:22:01.711Z,72.82
2023-07-01T03:22:17.922Z,72.79
2023-07-01T03:22:34.006Z,72.77
2023-07-01T03:22:50.153Z,72.9
2023-07-01T03:23:06.301Z,72.87
2023-07-01T03:23:22.446Z,72.79
2023-07-01T03:23:38.571Z,72.67
2023-07-01T03:23:54.744Z,72.77
2023-07-01T03:24:22.154Z,73.05
2023-07-01T03:24:38.341Z,72.95
2023-07-01T03:24:54.474Z,72.82
2023-07-01T03:25:10.589Z,72.77
2023-07-01T03:25:26.748Z,72.83
2023-07-01T03:25:42.914Z,72.85
2023-07-01T03:25:59.020Z,72.63
2023-07-01T03:26:15.164Z,72.4
2023-07-01T03:26:31.322Z,72.31
2023-07-01T03:26:47.469Z,72.45
2023-07-01T03:27:03.603Z,72.51
2023-07-01T03:27:19.789Z,72.46
2023-07-01T03:27:35.928Z,72.26
2023-07-01T03:27:52.048Z,72.25
2023-07-01T03:28:08.243Z,72.34
2023-07-01T03:28:24.361Z,72.37
2023-07-01T03:28:40.510Z,72.35
2023-07-01T03:28:56.661Z,72.31
2023-07-01T03:29:12.825Z,72.33
2023-07-01T03:29:28.959Z,72.33
2023-07-01T03:29:45.120Z,72.35
2023-07-01T03:30:01.234Z,72.38
2023-07-01T03:30:17.364Z,72.07
2023-07-01T03:30:33.507Z,72.12